Lake Placid, NY

11:31 PM EST on December 20, 2014 (GMT -0500)
Plattsburgh International | Change Station
CLOSE
Current Station
Airport
Location: Plattsburgh,
Elevation: 236 ft
Nearby Weather Stations

Elev 236 ft 44.65 °N, 73.47 °W | Updated 38 minutes ago

Mostly Cloudy
Mostly Cloudy
15 °F
Feels Like 8 °F
N
5
Wind Variable Wind from North

Today
High -- | Low -- °F
--% Chance of Precip.
Yesterday
High -- | Low -- °F
Precip. -- in
7:27 AM 4:19 PM
Waning Crescent, 1% visible
Pressure 30.36 in
Visibility 7.0 miles
Clouds Overcast 900 ft
Windchill 8 °F
Dew Point 12 °F
Humidity 88%
Rainfall 0.00 in
Snow Depth Not available.
UV 0 out of 12
Pollen .10 out of 12
Air Quality Not available.
Flu Activity Not available.
METAR KPBG 210353Z AUTO 36004KT 7SM OVC009 M09/M11 A3034 RMK AO2 SLP279 T10941111

More Conditions Fewer Conditions

Pressure 30.36 in
Visibility 7.0 miles
Clouds Overcast 900 ft
Windchill 8 °F
Dew Point 12 °F
Humidity 88%
Rainfall 0.00 in
Snow Depth Not available.
UV 0 out of 12
Pollen .10 out of 12
Air Quality Not available.
Flu Activity Not available.
METAR KPBG 210353Z AUTO 36004KT 7SM OVC009 M09/M11 A3034 RMK AO2 SLP279 T10941111

More Conditions Fewer Conditions

10-Day Weather Forecast

Almanac

Astronomy

Dec. 20, 2014 Rise Set
Actual Time
Civil Twilight
Nautical Twilight
Astronomical Twilight
Moon
Length of Visible Light
Length of Day
Tomorrow will be .
, % of the Moon is Illuminated

Today's Extremes

State Highs State Lows

Community

WunderPhotos

Upload Photos

1,779,358 photos uploaded!

WunderBlogs® & News

Nearby

Air Quality

  Air Quality AQ Index Pollutant
Not available.

Snow Depth

Station Depth Elevation

Earthquake Activity

City Distance Mag. Time & Date
Minimum magnitude displayed is 2.5.

Coastal Water Temperatures

Place Temperature

Nearby Weather Stations